Time;durP1;ratioP1;P1;durP2;ratioP2;P2;SDS_P1;SDS_P2;PMS_P1;PMS_P2;Temp;Humidity;BMP_temperature;BMP_pressure;BME280_temperature;BME280_humidity;BME280_pressure;Samples;Min_cycle;Max_cycle;Signal;HPM_P1;HPM_P2
2024/04/07 00:01:55;;;;;;;7.57;5.23;;;14.00;99.90;;;;;;5063325;28;20195;-77
2024/04/07 00:04:22;;;;;;;6.03;4.70;;;13.90;99.90;;;;;;5049067;28;20297;-77
2024/04/07 00:06:49;;;;;;;7.00;5.10;;;13.90;99.90;;;;;;5045056;28;20230;-77
2024/04/07 00:09:17;;;;;;;5.83;4.40;;;13.80;99.90;;;;;;5049538;28;20250;-77
2024/04/07 00:11:43;;;;;;;7.47;4.80;;;13.70;99.90;;;;;;5045849;28;20661;-77
2024/04/07 00:14:09;;;;;;;8.33;5.33;;;13.60;99.90;;;;;;5046736;28;20209;-77
2024/04/07 00:16:35;;;;;;;7.10;4.80;;;13.60;99.90;;;;;;5060247;28;20253;-77
2024/04/07 00:19:03;;;;;;;6.53;4.73;;;13.60;99.90;;;;;;5050223;28;20196;-77
2024/04/07 00:21:29;;;;;;;6.80;4.27;;;13.50;99.90;;;;;;5043331;28;20228;-77
2024/04/07 00:23:56;;;;;;;7.47;4.73;;;13.40;99.90;;;;;;5040206;28;20200;-77
2024/04/07 00:26:24;;;;;;;7.47;4.40;;;13.30;99.90;;;;;;5049175;28;20205;-77
2024/04/07 00:28:51;;;;;;;8.20;4.87;;;13.30;99.90;;;;;;5063791;28;20226;-77
2024/04/07 00:31:16;;;;;;;7.43;4.70;;;13.30;99.90;;;;;;5036770;28;20216;-77
2024/04/07 00:33:43;;;;;;;10.40;8.10;;;13.20;99.90;;;;;;5034379;28;20554;-77
2024/04/07 00:36:09;;;;;;;8.63;7.87;;;13.20;99.90;;;;;;5067894;28;20222;-77
2024/04/07 00:38:36;;;;;;;9.33;8.53;;;13.10;99.90;;;;;;5063270;28;20219;-77
2024/04/07 00:41:02;;;;;;;8.73;7.93;;;13.10;99.90;;;;;;5067818;28;20218;-77
2024/04/07 00:43:30;;;;;;;8.83;8.00;;;13.10;99.90;;;;;;5047160;28;20245;-77
2024/04/07 00:45:57;;;;;;;8.37;7.67;;;13.10;99.90;;;;;;5067813;28;20265;-77
2024/04/07 00:48:24;;;;;;;6.23;4.77;;;13.10;99.90;;;;;;5067844;28;20189;-77
2024/04/07 00:50:54;;;;;;;5.33;4.30;;;13.10;99.90;;;;;;5051269;28;20230;-77
2024/04/07 00:53:21;;;;;;;7.73;7.13;;;13.10;99.90;;;;;;5048419;28;20278;-77
2024/04/07 00:55:48;;;;;;;8.17;7.47;;;13.10;99.90;;;;;;5034631;28;20207;-77
2024/04/07 00:58:17;;;;;;;8.27;7.47;;;13.00;99.90;;;;;;5069165;28;20665;-77
2024/04/07 01:00:45;;;;;;;8.33;7.63;;;13.00;99.90;;;;;;5061391;28;20272;-77
2024/04/07 01:03:13;;;;;;;7.73;7.13;;;13.00;99.90;;;;;;5067694;28;20198;-77
2024/04/07 01:05:39;;;;;;;8.73;8.03;;;13.00;99.90;;;;;;5062328;28;20261;-77
2024/04/07 01:08:07;;;;;;;8.73;7.87;;;12.90;99.90;;;;;;5061115;28;20196;-77
2024/04/07 01:10:33;;;;;;;8.23;7.63;;;12.80;99.90;;;;;;5050187;28;20227;-77
2024/04/07 01:13:00;;;;;;;8.80;8.10;;;12.70;99.90;;;;;;5060892;28;20592;-77
2024/04/07 01:15:26;;;;;;;8.20;7.40;;;12.60;99.90;;;;;;5051724;28;20200;-77
2024/04/07 01:17:54;;;;;;;9.07;7.47;;;12.60;99.90;;;;;;5062028;28;20213;-77
2024/04/07 01:20:20;;;;;;;8.80;7.23;;;12.50;99.90;;;;;;5044108;28;20770;-77
2024/04/07 01:22:48;;;;;;;8.13;7.40;;;12.40;99.90;;;;;;5055981;28;20185;-77
2024/04/07 01:25:17;;;;;;;7.63;7.03;;;12.40;99.90;;;;;;5059749;28;20203;-77
2024/04/07 01:27:45;;;;;;;7.97;7.20;;;12.40;99.90;;;;;;5044976;28;20685;-77
2024/04/07 01:30:11;;;;;;;8.17;7.37;;;12.40;99.90;;;;;;5053884;28;20258;-77
2024/04/07 01:32:38;;;;;;;7.77;7.17;;;12.40;99.90;;;;;;5051561;28;20250;-77
2024/04/07 01:35:04;;;;;;;8.13;7.43;;;12.40;99.90;;;;;;5068489;28;20250;-77
2024/04/07 01:37:31;;;;;;;7.27;6.70;;;12.40;99.90;;;;;;5066075;28;20211;-77
2024/04/07 01:40:02;;;;;;;7.23;6.50;;;12.50;99.90;;;;;;5044522;28;20246;-77
2024/04/07 01:42:30;;;;;;;8.13;7.43;;;12.50;99.90;;;;;;5029217;28;20754;-77
2024/04/07 01:44:56;;;;;;;7.80;7.20;;;12.50;99.90;;;;;;5041952;28;20207;-77
2024/04/07 01:47:23;;;;;;;5.40;4.67;;;12.60;99.90;;;;;;5070108;28;20199;-77
2024/04/07 01:49:50;;;;;;;4.53;4.13;;;12.60;99.90;;;;;;5050359;28;20222;-77
2024/04/07 01:52:16;;;;;;;6.03;4.83;;;12.60;99.90;;;;;;5071997;28;20694;-77
2024/04/07 01:54:43;;;;;;;7.67;7.03;;;12.60;99.90;;;;;;5069874;28;20265;-77
2024/04/07 01:57:10;;;;;;;4.63;3.93;;;12.60;99.90;;;;;;5040440;28;20211;-77
2024/04/07 01:59:37;;;;;;;10.10;5.00;;;12.50;99.90;;;;;;5061980;28;20223;-77
2024/04/07 02:02:04;;;;;;;6.10;4.20;;;12.50;99.90;;;;;;5045129;28;20563;-77
2024/04/07 02:04:30;;;;;;;5.57;3.93;;;12.50;99.90;;;;;;5062279;28;20228;-77
2024/04/07 02:06:57;;;;;;;5.10;4.30;;;12.40;99.90;;;;;;5055880;28;20682;-77
2024/04/07 02:09:23;;;;;;;4.20;3.80;;;12.50;99.90;;;;;;5062488;28;20193;-77
2024/04/07 02:11:50;;;;;;;4.23;3.37;;;12.50;99.90;;;;;;5056410;28;20218;-77
2024/04/07 02:14:15;;;;;;;4.13;3.70;;;12.50;99.90;;;;;;5034594;28;20277;-77
2024/04/07 02:16:44;;;;;;;5.13;3.90;;;12.60;99.90;;;;;;5069743;28;20194;-77
2024/04/07 02:19:11;;;;;;;5.03;3.73;;;12.60;99.90;;;;;;5064177;28;20190;-77
2024/04/07 02:21:38;;;;;;;4.20;3.80;;;12.60;99.90;;;;;;5070821;28;20657;-77
2024/04/07 02:24:04;;;;;;;6.00;3.73;;;12.60;99.90;;;;;;5041866;28;20205;-77
2024/04/07 02:26:31;;;;;;;5.53;4.00;;;12.60;99.90;;;;;;5049354;28;20248;-77
2024/04/07 02:28:57;;;;;;;4.97;3.97;;;12.70;99.90;;;;;;5061561;28;20225;-76
2024/04/07 02:31:24;;;;;;;4.63;4.10;;;12.70;99.90;;;;;;5053124;28;20257;-77
2024/04/07 02:33:52;;;;;;;7.30;4.30;;;12.70;99.90;;;;;;5066736;28;20197;-77
2024/04/07 02:36:18;;;;;;;4.77;4.10;;;12.70;99.90;;;;;;5051873;28;20248;-79
2024/04/07 02:38:44;;;;;;;5.27;3.83;;;12.70;99.90;;;;;;5045816;28;20207;-80
2024/04/07 02:41:12;;;;;;;3.90;3.50;;;12.70;99.90;;;;;;5068957;28;20226;-81
2024/04/07 02:43:38;;;;;;;6.63;4.17;;;12.70;99.90;;;;;;5054160;28;20297;-80
2024/04/07 02:48:49;;;;;;;8.03;4.40;;;12.80;99.90;;;;;;5038825;28;20202;-79
2024/04/07 02:51:17;;;;;;;5.90;3.77;;;12.80;99.90;;;;;;5044286;28;20645;-81
2024/04/07 02:53:46;;;;;;;7.80;6.47;;;12.80;99.90;;;;;;5049616;28;20199;-81
2024/04/07 02:56:15;;;;;;;7.80;7.10;;;12.90;99.90;;;;;;5070489;28;20234;-80
2024/04/07 02:58:42;;;;;;;8.13;7.33;;;12.90;99.90;;;;;;5043789;28;20193;-79
2024/04/07 03:01:08;;;;;;;7.53;6.50;;;12.90;99.90;;;;;;5045094;28;20219;-80
2024/04/07 03:03:35;;;;;;;8.23;7.40;;;12.90;99.90;;;;;;5047776;28;20664;-80
2024/04/07 03:06:03;;;;;;;7.20;6.60;;;12.90;99.90;;;;;;5036493;28;20197;-80
2024/04/07 03:08:31;;;;;;;6.90;6.20;;;12.90;99.90;;;;;;5063786;28;20195;-80
2024/04/07 03:10:57;;;;;;;5.97;5.47;;;12.90;99.90;;;;;;5065506;28;20219;-79
2024/04/07 03:13:24;;;;;;;6.90;6.27;;;12.90;99.90;;;;;;5059376;28;20704;-79
2024/04/07 03:15:50;;;;;;;6.73;6.13;;;12.80;99.90;;;;;;5034476;28;20705;-80
2024/04/07 03:18:17;;;;;;;7.20;6.50;;;12.90;99.90;;;;;;5052931;28;20191;-80
2024/04/07 03:20:43;;;;;;;6.07;5.57;;;12.90;99.90;;;;;;5052846;28;20232;-80
2024/04/07 03:23:09;;;;;;;6.37;5.77;;;12.90;99.90;;;;;;5061517;28;20193;-80
2024/04/07 03:25:37;;;;;;;6.00;5.50;;;13.00;99.90;;;;;;5042975;28;20209;-79
2024/04/07 03:28:04;;;;;;;6.03;5.40;;;12.90;99.90;;;;;;5030377;28;20205;-80
2024/04/07 03:30:31;;;;;;;6.03;5.40;;;13.00;99.90;;;;;;5027007;28;20224;-80
2024/04/07 03:32:57;;;;;;;5.53;5.03;;;13.00;99.90;;;;;;5026058;28;20250;-80
2024/04/07 03:35:23;;;;;;;5.50;5.00;;;13.00;99.90;;;;;;5029709;28;20264;-80
2024/04/07 03:37:50;;;;;;;4.70;4.30;;;12.90;99.90;;;;;;5059051;28;20192;-80
2024/04/07 03:40:17;;;;;;;3.93;3.50;;;13.00;99.90;;;;;;5037632;28;20217;-84
2024/04/07 03:42:46;;;;;;;3.17;2.90;;;13.00;99.90;;;;;;5052630;28;20204;-83
2024/04/07 03:45:13;;;;;;;3.23;2.93;;;13.00;99.90;;;;;;5037555;28;20235;-85
2024/04/07 03:47:40;;;;;;;3.10;2.83;;;13.00;99.90;;;;;;5031762;28;20212;-85
2024/04/07 03:50:08;;;;;;;2.97;2.77;;;13.00;99.90;;;;;;5051603;28;20682;-77
2024/04/07 03:52:34;;;;;;;2.97;2.67;;;13.10;99.90;;;;;;5061510;28;20772;-79
2024/04/07 03:55:01;;;;;;;3.23;2.70;;;13.10;99.90;;;;;;5037115;28;20557;-76
2024/04/07 03:57:28;;;;;;;4.23;3.00;;;13.10;99.90;;;;;;5067374;28;20199;-75
2024/04/07 03:59:56;;;;;;;3.10;2.80;;;13.10;99.90;;;;;;5062902;28;20223;-78
2024/04/07 04:02:23;;;;;;;2.90;2.70;;;13.20;99.90;;;;;;5061536;28;20679;-77
2024/04/07 04:04:57;;;;;;;3.50;2.77;;;13.10;99.90;;;;;;5068846;28;20233;-78
2024/04/07 04:07:26;;;;;;;2.90;2.70;;;13.10;99.90;;;;;;5034152;28;20291;-77
2024/04/07 04:09:54;;;;;;;2.70;2.50;;;13.20;99.90;;;;;;5065628;28;20244;-77
2024/04/07 04:12:20;;;;;;;3.77;3.00;;;13.10;99.90;;;;;;5067314;28;20765;-77
2024/04/07 04:14:47;;;;;;;2.80;2.60;;;13.20;99.90;;;;;;5060942;28;20192;-77
2024/04/07 04:17:15;;;;;;;2.97;2.37;;;13.30;99.90;;;;;;5047042;28;20203;-77
2024/04/07 04:19:42;;;;;;;2.53;2.17;;;13.30;99.90;;;;;;5058980;28;20225;-77
2024/04/07 04:22:08;;;;;;;2.20;2.00;;;13.40;99.90;;;;;;5067031;28;20202;-77
2024/04/07 04:24:36;;;;;;;2.37;2.17;;;13.50;99.90;;;;;;5066935;28;20205;-77
2024/04/07 04:27:02;;;;;;;2.27;2.07;;;13.50;99.90;;;;;;5046701;28;20697;-77
2024/04/07 04:29:29;;;;;;;2.17;2.00;;;13.60;99.90;;;;;;5053767;28;20637;-76
2024/04/07 04:31:55;;;;;;;2.17;1.97;;;13.60;99.90;;;;;;5066211;28;20229;-77
2024/04/07 04:34:24;;;;;;;2.70;2.30;;;13.70;99.90;;;;;;5048501;28;20278;-77
2024/04/07 04:36:51;;;;;;;2.67;2.20;;;13.70;99.90;;;;;;5050690;28;20193;-79
2024/04/07 04:39:18;;;;;;;2.63;2.43;;;13.80;99.90;;;;;;5041851;28;20747;-77
2024/04/07 04:41:45;;;;;;;3.30;2.30;;;13.80;99.90;;;;;;5047727;28;20191;-81
2024/04/07 04:44:14;;;;;;;2.50;2.30;;;13.80;99.90;;;;;;5041598;28;20212;-75
2024/04/07 04:46:44;;;;;;;2.27;2.13;;;13.80;99.90;;;;;;5043056;28;20608;-76
2024/04/07 04:49:11;;;;;;;2.40;2.20;;;13.80;99.90;;;;;;5043740;28;20186;-76
2024/04/07 04:51:39;;;;;;;4.23;2.70;;;13.70;99.90;;;;;;5062169;28;20200;-76
2024/04/07 04:54:06;;;;;;;3.20;2.23;;;13.70;99.90;;;;;;5033078;28;20636;-76
2024/04/07 04:56:32;;;;;;;2.57;2.37;;;13.60;99.90;;;;;;5040312;28;20274;-76
2024/04/07 04:58:59;;;;;;;2.40;2.20;;;13.60;99.90;;;;;;5045084;28;20286;-76
2024/04/07 05:01:26;;;;;;;2.50;2.30;;;13.60;99.90;;;;;;5048794;28;20290;-76
2024/04/07 05:03:54;;;;;;;2.10;2.00;;;13.70;99.90;;;;;;5058364;28;20207;-76
2024/04/07 05:06:20;;;;;;;2.77;2.30;;;13.70;99.90;;;;;;5043935;28;20200;-75
2024/04/07 05:08:49;;;;;;;2.10;2.00;;;13.70;99.90;;;;;;5034271;28;20200;-76
2024/04/07 05:11:15;;;;;;;3.30;2.30;;;13.70;99.90;;;;;;5058888;28;20215;-76
2024/04/07 05:13:43;;;;;;;2.37;2.17;;;13.70;99.90;;;;;;5055527;28;20187;-76
2024/04/07 05:16:10;;;;;;;2.30;2.10;;;13.70;99.90;;;;;;5038873;28;20232;-76
2024/04/07 05:18:36;;;;;;;2.90;2.60;;;13.60;99.90;;;;;;5064171;28;20261;-75
2024/04/07 05:21:04;;;;;;;2.63;2.43;;;13.50;99.90;;;;;;5047069;28;20227;-76
2024/04/07 05:23:30;;;;;;;3.47;2.60;;;13.50;99.90;;;;;;5066466;28;20247;-76
2024/04/07 05:26:08;;;;;;;3.40;2.70;;;13.40;99.90;;;;;;5067836;28;20674;-76
2024/04/07 05:28:34;;;;;;;3.27;2.97;;;13.40;99.90;;;;;;5052155;28;20288;-76
2024/04/07 05:31:04;;;;;;;3.10;2.80;;;13.30;99.90;;;;;;5062834;28;20294;-76
2024/04/07 05:33:30;;;;;;;4.33;3.00;;;13.30;99.90;;;;;;5069912;28;20582;-76
2024/04/07 05:35:57;;;;;;;3.37;2.90;;;13.30;99.90;;;;;;5048612;28;20192;-76
2024/04/07 05:38:23;;;;;;;3.93;3.03;;;13.20;99.90;;;;;;5069884;28;20268;-76
2024/04/07 05:40:54;;;;;;;2.83;2.63;;;13.20;99.90;;;;;;5067972;28;20207;-76
2024/04/07 05:43:21;;;;;;;3.67;3.03;;;13.30;99.90;;;;;;5051258;28;20272;-76
2024/04/07 05:45:48;;;;;;;2.97;2.77;;;13.20;99.90;;;;;;5043340;28;20653;-75
2024/04/07 05:48:14;;;;;;;2.97;2.60;;;13.20;99.90;;;;;;5051820;28;20192;-76
2024/04/07 05:50:40;;;;;;;4.80;2.70;;;13.30;99.90;;;;;;5048510;28;20648;-76
2024/04/07 05:53:06;;;;;;;3.13;2.50;;;13.30;99.90;;;;;;5052757;28;20663;-76
2024/04/07 05:55:34;;;;;;;3.13;2.60;;;13.30;99.90;;;;;;5065772;28;20240;-76
2024/04/07 05:58:00;;;;;;;3.93;2.57;;;13.40;99.90;;;;;;5041035;28;20191;-76
2024/04/07 06:00:29;;;;;;;2.97;2.60;;;13.40;99.90;;;;;;5068841;28;20268;-76
2024/04/07 06:02:54;;;;;;;2.60;2.40;;;13.50;99.90;;;;;;5038704;28;20266;-76
2024/04/07 06:05:21;;;;;;;2.40;2.20;;;13.60;99.90;;;;;;5069148;28;20197;-76
2024/04/07 06:07:49;;;;;;;2.30;2.10;;;13.70;99.90;;;;;;5062642;28;20692;-76
2024/04/07 06:10:16;;;;;;;5.23;2.77;;;13.80;99.90;;;;;;5060541;28;20282;-76
2024/04/07 06:12:42;;;;;;;2.67;2.43;;;13.90;99.90;;;;;;5059092;28;20287;-76
2024/04/07 06:15:09;;;;;;;3.23;2.50;;;13.90;99.90;;;;;;5070789;28;20221;-75
2024/04/07 06:17:36;;;;;;;2.80;2.30;;;14.00;99.90;;;;;;5055753;28;20201;-76
2024/04/07 06:20:04;;;;;;;3.17;2.33;;;14.20;99.90;;;;;;5040721;28;20243;-76
2024/04/07 06:22:30;;;;;;;2.40;2.20;;;14.40;99.90;;;;;;5051070;28;20278;-76
2024/04/07 06:24:57;;;;;;;2.13;2.03;;;14.50;99.90;;;;;;5060976;28;20224;-76
2024/04/07 06:27:23;;;;;;;2.47;2.27;;;14.60;99.90;;;;;;5060569;28;20205;-76
2024/04/07 06:29:50;;;;;;;2.67;2.30;;;14.90;99.90;;;;;;5066544;28;20209;-76
2024/04/07 06:32:16;;;;;;;2.60;2.40;;;15.10;99.90;;;;;;5069100;28;20304;-75
2024/04/07 06:34:44;;;;;;;2.20;2.00;;;15.40;99.90;;;;;;5065784;28;20198;-76
2024/04/07 06:37:10;;;;;;;2.03;1.93;;;15.70;99.90;;;;;;5064961;28;20186;-76
2024/04/07 06:39:38;;;;;;;1.90;1.80;;;16.00;99.90;;;;;;5059920;28;20639;-76
2024/04/07 06:42:04;;;;;;;2.27;2.07;;;16.10;99.90;;;;;;5063909;28;20190;-76
2024/04/07 06:44:31;;;;;;;2.20;2.00;;;16.40;99.90;;;;;;5061427;28;20210;-76
2024/04/07 06:46:57;;;;;;;1.90;1.80;;;16.40;99.90;;;;;;5061265;28;20198;-76
2024/04/07 06:49:24;;;;;;;2.23;1.60;;;16.60;99.90;;;;;;5062338;28;20199;-76
2024/04/07 06:51:51;;;;;;;2.40;1.90;;;16.70;99.90;;;;;;5052684;28;20230;-76
2024/04/07 06:54:17;;;;;;;2.37;2.00;;;16.70;99.90;;;;;;5063519;28;20662;-76
2024/04/07 06:56:43;;;;;;;2.13;1.90;;;16.80;99.90;;;;;;5052015;28;20734;-76
2024/04/07 06:59:10;;;;;;;2.20;2.00;;;16.70;99.90;;;;;;5057774;28;20195;-76
2024/04/07 07:01:36;;;;;;;2.13;1.90;;;16.80;99.90;;;;;;5052396;28;20209;-76
2024/04/07 07:04:04;;;;;;;2.10;1.90;;;16.80;99.90;;;;;;5038989;28;20211;-76
2024/04/07 07:06:31;;;;;;;2.10;1.90;;;16.80;99.90;;;;;;5053147;28;20200;-76
2024/04/07 07:08:59;;;;;;;2.43;1.90;;;16.90;99.90;;;;;;5040315;28;20197;-76
2024/04/07 07:11:25;;;;;;;2.27;2.07;;;17.00;99.90;;;;;;5066591;28;20217;-76
2024/04/07 07:13:54;;;;;;;2.00;1.90;;;17.20;99.90;;;;;;5062382;28;20733;-76
2024/04/07 07:16:20;;;;;;;2.00;1.90;;;17.40;99.90;;;;;;5064314;28;20192;-76
2024/04/07 07:18:47;;;;;;;2.80;1.90;;;17.50;99.90;;;;;;5061962;28;20199;-76
2024/04/07 07:21:12;;;;;;;2.73;1.80;;;17.70;99.90;;;;;;5049128;28;20231;-76
2024/04/07 07:23:39;;;;;;;2.77;2.00;;;17.90;99.90;;;;;;5061321;28;20579;-76
2024/04/07 07:26:06;;;;;;;2.30;2.10;;;18.00;99.90;;;;;;5069169;28;20189;-76
2024/04/07 07:28:33;;;;;;;1.80;1.70;;;18.10;99.90;;;;;;5063465;28;20206;-76
2024/04/07 07:30:59;;;;;;;2.13;1.90;;;18.20;99.90;;;;;;5072218;28;20240;-76
2024/04/07 07:33:26;;;;;;;2.10;1.90;;;18.30;99.90;;;;;;5047321;28;20226;-76
2024/04/07 07:35:52;;;;;;;2.30;1.90;;;18.50;99.90;;;;;;5045244;28;20261;-76
2024/04/07 07:38:19;;;;;;;4.00;2.30;;;18.60;99.90;;;;;;5035426;28;20634;-77
2024/04/07 07:40:45;;;;;;;2.63;2.10;;;18.80;99.90;;;;;;5047652;28;20251;-78
2024/04/07 07:43:13;;;;;;;4.33;2.10;;;19.00;99.90;;;;;;5065853;28;20249;-79
2024/04/07 07:45:40;;;;;;;2.27;2.07;;;19.20;99.90;;;;;;5049234;28;20628;-79
2024/04/07 07:48:07;;;;;;;2.40;2.20;;;19.40;99.90;;;;;;5040807;28;20198;-78
2024/04/07 07:50:33;;;;;;;3.00;2.10;;;19.60;99.90;;;;;;5067052;28;20221;-78
2024/04/07 07:53:00;;;;;;;2.70;2.17;;;19.80;99.90;;;;;;5064043;28;20560;-79
2024/04/07 07:55:25;;;;;;;3.47;2.00;;;20.10;99.90;;;;;;5038985;28;20268;-76
2024/04/07 07:57:52;;;;;;;2.67;2.17;;;20.30;99.90;;;;;;5051613;28;20194;-75
2024/04/07 08:00:23;;;;;;;3.77;2.13;;;20.50;99.90;;;;;;5061515;28;20206;-75
2024/04/07 08:02:52;;;;;;;4.87;2.53;;;20.70;99.90;;;;;;5037473;28;20292;-78
2024/04/07 08:05:18;;;;;;;3.13;2.10;;;20.80;99.90;;;;;;5063429;28;20567;-75
2024/04/07 08:07:44;;;;;;;4.07;2.20;;;20.90;99.90;;;;;;5066750;28;20198;-77
2024/04/07 08:10:10;;;;;;;2.70;2.10;;;21.00;99.90;;;;;;5052314;28;20715;-76
2024/04/07 08:12:38;;;;;;;2.67;2.10;;;21.00;99.90;;;;;;5040575;28;20201;-77
2024/04/07 08:15:06;;;;;;;2.33;1.80;;;21.10;99.90;;;;;;5047895;28;20257;-76
2024/04/07 08:17:34;;;;;;;5.23;2.60;;;21.20;99.90;;;;;;5052768;28;20203;-77
2024/04/07 08:20:01;;;;;;;3.57;3.27;;;21.30;99.90;;;;;;5058630;28;20222;-77
2024/04/07 08:22:27;;;;;;;4.97;3.40;;;21.30;99.90;;;;;;5066049;28;20248;-77
2024/04/07 08:24:55;;;;;;;4.03;3.40;;;21.40;99.90;;;;;;5057717;28;20266;-77
2024/04/07 08:27:25;;;;;;;4.63;2.87;;;21.60;99.90;;;;;;5054234;28;20245;-82
2024/04/07 08:29:52;;;;;;;2.97;2.30;;;21.70;99.90;;;;;;5029931;28;20270;-77
2024/04/07 08:32:19;;;;;;;2.33;2.13;;;21.80;99.90;;;;;;5050869;28;20205;-80
2024/04/07 08:34:47;;;;;;;5.60;3.17;;;22.00;99.90;;;;;;5031008;28;20566;-77
2024/04/07 08:37:13;;;;;;;4.43;3.27;;;22.10;99.90;;;;;;5042784;28;20274;-78
2024/04/07 08:39:39;;;;;;;3.97;2.57;;;22.30;99.90;;;;;;5042694;28;20747;-78
2024/04/07 08:42:08;;;;;;;3.70;2.20;;;22.50;99.90;;;;;;5034939;28;20233;-78
2024/04/07 08:44:37;;;;;;;7.60;2.60;;;22.60;99.90;;;;;;5058605;28;20241;-77
2024/04/07 08:47:05;;;;;;;3.73;2.30;;;22.50;99.90;;;;;;5059356;28;20276;-77
2024/04/07 08:49:34;;;;;;;6.17;2.50;;;22.50;99.90;;;;;;5040615;28;20222;-78
2024/04/07 08:52:02;;;;;;;4.00;2.50;;;22.50;99.90;;;;;;5048956;28;20518;-77
2024/04/07 08:54:29;;;;;;;3.13;2.23;;;22.40;99.90;;;;;;5047057;28;20199;-77
2024/04/07 08:56:58;;;;;;;3.63;2.67;;;22.30;99.90;;;;;;5032333;28;20265;-77
2024/04/07 08:59:32;;;;;;;3.97;2.60;;;22.30;99.90;;;;;;5058071;28;20188;-78
2024/04/07 09:02:01;;;;;;;5.33;3.00;;;22.10;99.90;;;;;;5061865;28;20240;-77
2024/04/07 09:04:32;;;;;;;5.27;2.60;;;21.90;99.90;;;;;;5040244;28;20233;-78
2024/04/07 09:06:58;;;;;;;5.57;2.97;;;21.90;99.90;;;;;;5060867;28;20252;-78
2024/04/07 09:09:26;;;;;;;3.90;2.90;;;21.90;99.90;;;;;;5038974;28;20203;-78
2024/04/07 09:11:52;;;;;;;5.23;2.97;;;21.90;99.90;;;;;;5053961;28;20646;-78
2024/04/07 09:14:19;;;;;;;5.83;3.40;;;21.90;99.90;;;;;;5040082;28;20187;-79
2024/04/07 09:16:45;;;;;;;5.10;3.17;;;21.80;99.90;;;;;;5037236;28;20613;-78
2024/04/07 09:19:12;;;;;;;4.47;3.00;;;21.90;99.90;;;;;;5054211;28;20229;-78
2024/04/07 09:21:44;;;;;;;6.43;3.20;;;22.00;99.90;;;;;;5036955;28;20597;-79
2024/04/07 09:24:11;;;;;;;5.07;2.93;;;22.30;99.90;;;;;;5034178;28;20207;-79
2024/04/07 09:26:38;;;;;;;3.30;2.80;;;22.50;99.90;;;;;;5061163;28;20273;-79
2024/04/07 09:29:05;;;;;;;4.70;3.07;;;22.70;99.90;;;;;;5044183;28;20299;-79
2024/04/07 09:31:31;;;;;;;5.73;2.30;;;22.90;99.90;;;;;;5036109;28;20231;-78
2024/04/07 09:33:58;;;;;;;3.37;2.10;;;23.20;99.90;;;;;;5026130;28;20195;-79
2024/04/07 09:36:24;;;;;;;7.90;2.47;;;23.40;99.90;;;;;;5047418;28;20202;-79
2024/04/07 09:38:51;;;;;;;4.83;3.00;;;23.80;99.90;;;;;;5041628;28;20627;-79
2024/04/07 09:41:19;;;;;;;4.73;3.70;;;24.30;99.90;;;;;;5050245;28;20702;-79
2024/04/07 09:43:53;;;;;;;5.03;3.43;;;24.50;99.90;;;;;;5032786;28;20227;-79
2024/04/07 09:46:22;;;;;;;6.33;4.70;;;24.70;99.90;;;;;;5041039;28;20633;-79
2024/04/07 09:49:04;;;;;;;7.57;4.33;;;25.00;99.90;;;;;;5055218;28;20195;-83
2024/04/07 09:51:45;;;;;;;8.40;4.50;;;25.50;99.90;;;;;;5045149;28;20222;-84
2024/04/07 09:54:31;;;;;;;6.20;4.67;;;26.00;99.90;;;;;;5056786;28;20639;-81
2024/04/07 10:24:38;;;;;;;6.27;5.37;;;25.50;97.60;;;;;;1301704;26;20456;-79
2024/04/07 10:27:16;;;;;;;5.17;4.67;;;25.50;98.00;;;;;;5043374;28;20568;-80
2024/04/07 10:29:54;;;;;;;6.60;4.50;;;25.30;97.60;;;;;;5049234;28;20222;-80
2024/04/07 10:47:14;;;;;;;6.23;5.10;;;24.80;98.50;;;;;;4965357;28;20220;-79
2024/04/07 10:49:53;;;;;;;7.07;5.20;;;25.10;98.00;;;;;;5004726;28;20227;-78
2024/04/07 10:56:28;;;;;;;;;;;;;;;;;;;;;
2024/04/07 10:59:45;;;;;;;4.90;4.20;;;25.40;96.80;;;;;;4999998;28;20740;-78
2024/04/07 11:02:53;;;;;;;5.13;4.27;;;25.30;96.50;;;;;;4991600;28;20482;-78
2024/04/07 11:05:19;;;;;;;5.97;4.30;;;25.30;96.80;;;;;;5037185;28;20200;-77
2024/04/07 11:11:00;;;;;;;5.80;4.30;;;25.10;95.90;;;;;;5041454;28;20270;-78
2024/04/07 11:13:31;;;;;;;5.33;3.60;;;25.00;97.10;;;;;;5035343;28;20219;-77
2024/04/07 11:15:59;;;;;;;5.60;3.77;;;25.00;97.90;;;;;;5034735;28;20241;-77
2024/04/07 11:18:26;;;;;;;6.50;4.00;;;24.90;97.40;;;;;;5052302;28;20234;-78
2024/04/07 11:20:54;;;;;;;7.87;3.70;;;25.00;97.70;;;;;;5038012;28;20629;-79
2024/04/07 11:23:20;;;;;;;3.90;3.30;;;25.00;97.70;;;;;;5052078;28;20188;-78
2024/04/07 11:25:48;;;;;;;5.00;3.93;;;25.30;98.70;;;;;;5052271;28;20199;-77
2024/04/07 11:28:14;;;;;;;8.43;4.63;;;25.30;97.10;;;;;;5059611;28;20226;-77
2024/04/07 11:30:45;;;;;;;9.93;5.37;;;25.30;96.60;;;;;;5052562;28;20222;-77
2024/04/07 11:33:11;;;;;;;7.43;4.63;;;25.30;96.10;;;;;;5050646;28;20686;-77
2024/04/07 11:35:40;;;;;;;4.87;4.30;;;25.20;95.60;;;;;;5037130;28;20195;-79
2024/04/07 11:38:05;;;;;;;5.77;4.80;;;25.10;95.30;;;;;;5049385;28;20187;-78
2024/04/07 11:40:33;;;;;;;4.47;3.70;;;24.90;96.50;;;;;;5035735;28;20647;-78
2024/04/07 11:42:59;;;;;;;5.70;4.10;;;24.90;96.80;;;;;;5037077;28;20667;-78
2024/04/07 11:45:26;;;;;;;5.60;4.17;;;24.70;96.20;;;;;;5034918;28;20191;-78
2024/04/07 11:47:52;;;;;;;9.57;4.83;;;24.80;96.60;;;;;;5052361;28;20211;-77
2024/04/07 11:50:20;;;;;;;5.07;4.20;;;24.80;96.80;;;;;;5051673;28;20310;-78
2024/04/07 11:52:47;;;;;;;5.93;4.37;;;24.80;95.90;;;;;;5034983;28;20261;-78
2024/04/07 11:55:15;;;;;;;7.50;3.87;;;24.80;96.60;;;;;;5058233;28;20280;-76
2024/04/07 11:57:41;;;;;;;7.60;4.30;;;24.80;95.90;;;;;;5038852;28;20203;-77
2024/04/07 12:00:09;;;;;;;9.00;4.33;;;25.00;95.90;;;;;;5050542;28;20211;-76
2024/04/07 12:02:38;;;;;;;6.83;4.37;;;24.80;95.10;;;;;;5051394;28;20222;-77
2024/04/07 12:05:06;;;;;;;4.83;4.27;;;24.70;95.90;;;;;;5033613;28;20203;-75
2024/04/07 12:07:31;;;;;;;5.30;4.10;;;24.70;95.50;;;;;;5044211;28;20207;-75
2024/04/07 12:10:00;;;;;;;6.27;4.10;;;24.80;95.90;;;;;;5047925;28;20226;-76
2024/04/07 12:12:26;;;;;;;6.17;4.43;;;24.90;94.80;;;;;;5051657;28;20219;-75
2024/04/07 12:14:53;;;;;;;7.67;4.90;;;24.90;95.60;;;;;;5033061;28;20223;-75
2024/04/07 12:17:19;;;;;;;7.37;4.70;;;24.90;96.50;;;;;;5050440;28;20222;-76
2024/04/07 12:19:46;;;;;;;5.97;4.97;;;24.80;95.80;;;;;;5051246;28;20221;-75
2024/04/07 12:22:15;;;;;;;5.20;4.70;;;24.80;96.80;;;;;;5051105;28;20222;-75
2024/04/07 12:24:41;;;;;;;6.13;4.80;;;24.80;96.80;;;;;;5051276;28;20187;-75
2024/04/07 12:27:09;;;;;;;8.03;4.90;;;24.80;97.10;;;;;;5050813;28;20195;-75
2024/04/07 12:29:36;;;;;;;6.67;4.60;;;24.90;96.50;;;;;;5033045;28;20230;-75
2024/04/07 12:32:02;;;;;;;7.43;4.70;;;24.90;96.40;;;;;;5043786;28;20199;-75
2024/04/07 12:34:29;;;;;;;8.83;4.70;;;25.00;95.70;;;;;;5051746;28;20211;-80
2024/04/07 12:36:55;;;;;;;5.37;4.20;;;25.00;95.60;;;;;;5050428;28;20210;-82
2024/04/07 12:39:22;;;;;;;5.23;4.20;;;25.00;96.20;;;;;;5048600;28;20662;-76
2024/04/07 12:41:49;;;;;;;4.27;3.83;;;25.10;95.60;;;;;;5034860;28;20194;-76
2024/04/07 12:44:18;;;;;;;5.33;4.10;;;25.20;95.80;;;;;;5034869;28;20184;-76
2024/04/07 12:46:45;;;;;;;9.50;5.00;;;25.30;95.80;;;;;;5052322;28;20658;-77
2024/04/07 12:49:13;;;;;;;5.47;4.07;;;25.30;95.50;;;;;;5034073;28;20195;-77
2024/04/07 12:51:40;;;;;;;7.63;4.90;;;25.40;95.40;;;;;;5052339;28;20200;-77
2024/04/07 12:54:07;;;;;;;5.63;4.00;;;25.40;95.00;;;;;;5051257;28;20227;-76
2024/04/07 12:56:33;;;;;;;7.43;4.37;;;25.40;96.10;;;;;;5033118;28;20198;-77
2024/04/07 12:59:00;;;;;;;6.20;4.40;;;25.40;95.70;;;;;;5043273;28;20203;-77
2024/04/07 13:01:27;;;;;;;8.67;4.10;;;25.50;95.00;;;;;;5032917;28;20261;-77
2024/04/07 13:03:54;;;;;;;8.53;4.90;;;25.40;94.40;;;;;;5051059;28;20248;-77
2024/04/07 13:06:20;;;;;;;5.57;4.90;;;25.40;94.70;;;;;;5049185;28;20658;-77
2024/04/07 13:08:47;;;;;;;7.27;4.93;;;25.50;95.10;;;;;;5031295;28;20210;-77
2024/04/07 13:11:13;;;;;;;8.23;5.40;;;25.50;94.70;;;;;;5033564;28;20261;-77
2024/04/07 13:13:40;;;;;;;7.07;5.20;;;25.50;95.20;;;;;;5033533;28;20202;-76
2024/04/07 13:16:06;;;;;;;8.80;4.90;;;25.50;95.20;;;;;;5046222;28;20206;-76
2024/04/07 13:18:35;;;;;;;6.80;4.37;;;25.40;95.10;;;;;;5051080;28;20608;-77
2024/04/07 13:21:00;;;;;;;5.67;4.37;;;25.50;96.10;;;;;;5051443;28;20215;-77
2024/04/07 13:23:27;;;;;;;5.47;4.83;;;25.50;95.90;;;;;;5051158;28;20194;-78
2024/04/07 13:25:53;;;;;;;10.73;5.30;;;25.70;96.00;;;;;;5031975;28;20204;-78
2024/04/07 13:28:20;;;;;;;7.27;5.03;;;25.70;96.10;;;;;;5048948;28;20245;-78
2024/04/07 13:30:46;;;;;;;5.80;4.97;;;25.70;95.70;;;;;;5046616;28;20261;-78
2024/04/07 13:33:13;;;;;;;4.30;3.90;;;25.70;95.60;;;;;;5029767;28;20236;-77
2024/04/07 13:35:40;;;;;;;5.40;4.90;;;25.80;95.20;;;;;;5032416;28;20664;-78
2024/04/07 13:38:07;;;;;;;8.70;4.67;;;26.00;94.40;;;;;;5034041;28;20234;-78
2024/04/07 13:40:33;;;;;;;6.93;5.23;;;26.00;93.90;;;;;;5029693;28;20220;-78
2024/04/07 13:43:00;;;;;;;8.90;5.90;;;26.00;95.50;;;;;;5036135;28;20233;-79